Time;durP1;ratioP1;P1;durP2;ratioP2;P2;SDS_P1;SDS_P2;PMS_P1;PMS_P2;Temp;Humidity;BMP_temperature;BMP_pressure;BME280_temperature;BME280_humidity;BME280_pressure;Samples;Min_cycle;Max_cycle;Signal;HPM_P1;HPM_P2
2023/04/28 00:00:52;;;;;;;12.52;8.85;;;8.40;99.90;;;;;;5038704;28;20041;-57
2023/04/28 00:03:17;;;;;;;11.15;8.25;;;8.40;99.90;;;;;;5039611;28;20045;-57
2023/04/28 00:05:43;;;;;;;12.50;9.25;;;8.40;99.90;;;;;;5004703;28;20049;-57
2023/04/28 00:08:09;;;;;;;14.48;8.80;;;8.30;99.90;;;;;;5039778;28;20034;-57
2023/04/28 00:10:34;;;;;;;16.33;9.23;;;8.30;99.90;;;;;;5039153;28;20106;-57
2023/04/28 00:13:01;;;;;;;13.23;9.25;;;8.30;99.90;;;;;;5039748;28;20033;-57
2023/04/28 00:15:27;;;;;;;18.80;9.77;;;8.30;99.90;;;;;;5038043;28;20410;-56
2023/04/28 00:17:53;;;;;;;14.70;8.60;;;8.30;99.90;;;;;;5038596;28;20124;-57
2023/04/28 00:20:18;;;;;;;17.35;10.32;;;8.30;99.90;;;;;;5021094;28;20062;-57
2023/04/28 00:22:44;;;;;;;17.10;9.52;;;8.20;99.90;;;;;;5038504;28;20052;-57
2023/04/28 00:25:10;;;;;;;14.30;8.75;;;8.20;99.90;;;;;;5039354;28;20481;-57
2023/04/28 00:27:36;;;;;;;16.83;9.05;;;8.20;99.90;;;;;;5038743;28;20421;-57
2023/04/28 00:30:02;;;;;;;15.15;9.63;;;8.10;99.90;;;;;;5039466;28;20045;-57
2023/04/28 00:32:28;;;;;;;14.07;9.35;;;8.00;99.90;;;;;;5020974;28;20108;-56
2023/04/28 00:34:53;;;;;;;15.90;9.95;;;8.10;99.90;;;;;;5021003;28;20126;-57
2023/04/28 00:37:19;;;;;;;14.77;9.57;;;8.00;99.90;;;;;;5038818;28;20101;-58
2023/04/28 00:39:47;;;;;;;17.25;9.68;;;8.00;99.90;;;;;;5020529;28;20489;-57
2023/04/28 00:42:14;;;;;;;14.90;9.55;;;8.00;99.90;;;;;;5039055;28;20049;-56
2023/04/28 00:44:40;;;;;;;19.88;10.15;;;7.90;99.90;;;;;;5020187;28;20045;-56
2023/04/28 00:47:07;;;;;;;15.15;10.10;;;7.90;99.90;;;;;;5021549;28;20042;-56
2023/04/28 00:49:34;;;;;;;14.57;9.57;;;7.90;99.90;;;;;;5020991;28;20057;-56
2023/04/28 00:52:04;;;;;;;17.85;10.15;;;7.80;99.90;;;;;;5038320;28;20053;-56
2023/04/28 00:54:30;;;;;;;14.60;10.05;;;7.80;99.90;;;;;;5038803;28;20084;-56
2023/04/28 00:56:56;;;;;;;15.85;9.88;;;7.80;99.90;;;;;;5038269;28;20042;-57
2023/04/28 00:59:22;;;;;;;13.65;9.75;;;7.80;99.90;;;;;;5038868;28;20046;-56
2023/04/28 01:01:49;;;;;;;13.32;9.32;;;7.80;99.90;;;;;;5037915;28;20060;-57
2023/04/28 01:04:19;;;;;;;15.48;10.70;;;7.70;99.90;;;;;;5038878;28;20042;-58
2023/04/28 01:06:46;;;;;;;14.43;9.65;;;7.70;99.90;;;;;;5038582;28;20596;-56
2023/04/28 01:09:11;;;;;;;16.65;9.63;;;7.70;99.90;;;;;;5038360;28;20056;-57
2023/04/28 01:11:37;;;;;;;14.60;10.15;;;7.70;99.90;;;;;;5020893;28;20042;-56
2023/04/28 01:14:03;;;;;;;14.55;10.10;;;7.70;99.90;;;;;;5037496;28;20046;-57
2023/04/28 01:16:31;;;;;;;13.23;9.50;;;7.70;99.90;;;;;;5038774;28;20052;-57
2023/04/28 01:18:58;;;;;;;15.77;10.10;;;7.70;99.90;;;;;;5037967;28;20148;-56
2023/04/28 01:21:31;;;;;;;18.73;9.95;;;7.70;99.90;;;;;;5038986;28;20045;-57
2023/04/28 01:23:57;;;;;;;15.75;9.85;;;7.60;99.90;;;;;;5038600;28;20047;-56
2023/04/28 01:26:24;;;;;;;20.45;10.13;;;7.60;99.90;;;;;;5038121;28;20038;-57
2023/04/28 01:28:49;;;;;;;13.32;10.48;;;7.50;99.90;;;;;;5041941;28;20557;-57
2023/04/28 01:31:15;;;;;;;15.35;10.48;;;7.50;99.90;;;;;;5041674;28;20046;-57
2023/04/28 01:33:41;;;;;;;17.70;9.70;;;7.60;99.90;;;;;;5024387;28;20513;-57
2023/04/28 01:36:07;;;;;;;16.17;9.77;;;7.60;99.90;;;;;;5041698;28;20072;-57
2023/04/28 01:38:33;;;;;;;17.58;9.90;;;7.50;99.90;;;;;;5024902;28;20076;-57
2023/04/28 01:41:01;;;;;;;13.93;9.82;;;7.50;99.90;;;;;;5042155;28;20045;-57
2023/04/28 01:43:27;;;;;;;15.15;9.60;;;7.50;99.90;;;;;;5023700;28;20068;-57
2023/04/28 01:45:52;;;;;;;17.50;10.25;;;7.50;99.90;;;;;;5023844;28;20046;-58
2023/04/28 01:48:18;;;;;;;16.20;9.52;;;7.50;99.90;;;;;;5041427;28;20135;-58
2023/04/28 01:50:44;;;;;;;16.90;9.60;;;7.40;99.90;;;;;;5042099;28;20101;-57
2023/04/28 01:53:10;;;;;;;18.38;9.75;;;7.40;99.90;;;;;;5041318;28;20041;-57
2023/04/28 01:55:37;;;;;;;15.55;9.35;;;7.40;99.90;;;;;;5042415;28;20049;-57
2023/04/28 01:58:03;;;;;;;13.43;8.25;;;6.70;99.90;;;;;;5041890;28;20049;-56
2023/04/28 02:00:29;;;;;;;14.05;7.97;;;7.40;99.90;;;;;;5041028;28;20077;-57
2023/04/28 02:02:55;;;;;;;20.77;9.30;;;7.40;99.90;;;;;;5042012;28;20041;-57
2023/04/28 02:05:20;;;;;;;15.43;9.63;;;7.30;99.90;;;;;;5041224;28;20052;-57
2023/04/28 02:07:46;;;;;;;13.15;9.23;;;7.30;99.90;;;;;;5041966;28;20041;-57
2023/04/28 02:10:12;;;;;;;15.27;9.65;;;7.30;99.90;;;;;;5041066;28;20037;-57
2023/04/28 02:12:38;;;;;;;14.25;8.98;;;7.30;99.90;;;;;;5024184;28;20087;-56
2023/04/28 02:15:04;;;;;;;14.88;9.10;;;7.30;99.90;;;;;;5040992;28;20045;-57
2023/04/28 02:17:30;;;;;;;13.80;9.50;;;7.20;99.90;;;;;;5041685;28;20041;-59
2023/04/28 02:19:56;;;;;;;15.55;9.77;;;7.20;99.90;;;;;;5041542;28;20051;-57
2023/04/28 02:22:22;;;;;;;17.83;9.15;;;7.20;99.90;;;;;;5040936;28;20129;-57
2023/04/28 02:24:47;;;;;;;13.05;9.57;;;7.20;99.90;;;;;;5041433;28;20045;-57
2023/04/28 02:27:13;;;;;;;16.05;10.05;;;7.20;99.90;;;;;;5040931;28;20965;-57
2023/04/28 02:29:39;;;;;;;12.35;8.93;;;7.20;99.90;;;;;;5041652;28;20410;-57
2023/04/28 02:32:05;;;;;;;16.10;9.35;;;7.30;99.90;;;;;;5040827;28;20607;-57
2023/04/28 02:34:30;;;;;;;13.18;9.07;;;7.20;99.90;;;;;;5041356;28;20052;-57
2023/04/28 02:36:56;;;;;;;12.82;9.00;;;7.20;99.90;;;;;;5041484;28;20065;-57
2023/04/28 02:39:24;;;;;;;14.73;8.77;;;7.30;99.90;;;;;;5039680;28;20160;-57
2023/04/28 02:41:51;;;;;;;14.55;9.38;;;7.30;99.90;;;;;;5023561;28;20042;-56
2023/04/28 02:44:16;;;;;;;15.50;9.43;;;7.30;99.90;;;;;;5039949;28;20068;-58
2023/04/28 02:46:42;;;;;;;13.45;8.07;;;7.30;99.90;;;;;;5041515;28;20050;-58
2023/04/28 02:49:08;;;;;;;11.98;8.52;;;7.30;99.90;;;;;;5040808;28;20051;-58
2023/04/28 02:51:33;;;;;;;12.57;9.00;;;7.40;99.90;;;;;;5023295;28;20085;-57
2023/04/28 02:54:00;;;;;;;15.63;9.25;;;7.30;99.90;;;;;;5041086;28;20045;-57
2023/04/28 02:56:25;;;;;;;14.98;8.30;;;7.30;99.90;;;;;;5040517;28;20037;-57
2023/04/28 02:58:51;;;;;;;15.02;9.10;;;7.30;99.90;;;;;;5022987;28;20045;-57
2023/04/28 03:01:17;;;;;;;13.13;9.10;;;7.30;99.90;;;;;;5039977;28;20441;-57
2023/04/28 03:03:43;;;;;;;14.85;9.00;;;7.20;99.90;;;;;;5040960;28;20045;-57
2023/04/28 03:06:08;;;;;;;10.55;8.25;;;7.30;99.90;;;;;;5040429;28;20095;-57
2023/04/28 03:08:34;;;;;;;14.00;8.48;;;7.20;99.90;;;;;;5041008;28;20183;-57
2023/04/28 03:11:00;;;;;;;15.00;10.50;;;7.30;99.90;;;;;;5040769;28;20029;-57
2023/04/28 03:13:26;;;;;;;15.27;8.95;;;7.30;99.90;;;;;;5039532;28;20054;-58
2023/04/28 03:15:51;;;;;;;13.55;9.82;;;7.30;99.90;;;;;;5040458;28;20044;-57
2023/04/28 03:18:17;;;;;;;15.02;9.80;;;7.20;99.90;;;;;;5040039;28;20076;-57
2023/04/28 03:20:43;;;;;;;12.90;8.75;;;7.20;99.90;;;;;;5040498;28;20558;-57
2023/04/28 03:23:09;;;;;;;15.85;9.18;;;7.20;99.90;;;;;;5039907;28;20482;-57
2023/04/28 03:25:35;;;;;;;13.38;9.15;;;7.30;99.90;;;;;;5040578;28;20060;-56
2023/04/28 03:28:00;;;;;;;14.02;8.95;;;7.20;99.90;;;;;;5022236;28;20060;-57
2023/04/28 03:30:26;;;;;;;15.60;9.02;;;7.30;99.90;;;;;;5039648;28;20048;-58
2023/04/28 03:32:52;;;;;;;15.55;9.38;;;7.20;99.90;;;;;;5040098;28;20084;-58
2023/04/28 03:35:18;;;;;;;17.77;9.90;;;7.20;99.90;;;;;;5039422;28;20042;-58
2023/04/28 03:37:43;;;;;;;15.25;9.98;;;7.20;99.90;;;;;;5040278;28;20045;-55
2023/04/28 03:40:10;;;;;;;14.63;9.80;;;7.20;99.90;;;;;;5039487;28;20056;-57
2023/04/28 03:42:35;;;;;;;15.65;10.15;;;7.10;99.90;;;;;;5022424;28;20053;-57
2023/04/28 03:45:01;;;;;;;17.83;9.82;;;7.10;99.90;;;;;;5039290;28;20053;-57
2023/04/28 03:47:27;;;;;;;14.30;9.68;;;7.10;99.90;;;;;;5039838;28;20068;-57
2023/04/28 03:49:53;;;;;;;15.00;10.20;;;7.10;99.90;;;;;;5039726;28;20057;-57
2023/04/28 03:52:18;;;;;;;13.50;9.50;;;7.20;99.90;;;;;;5039182;28;20124;-58
2023/04/28 03:54:44;;;;;;;15.82;9.80;;;7.10;99.90;;;;;;5039659;28;20073;-58
2023/04/28 03:57:11;;;;;;;15.13;9.43;;;7.10;99.90;;;;;;5039114;28;20042;-57
2023/04/28 03:59:37;;;;;;;22.70;10.43;;;7.10;99.90;;;;;;5040075;28;20048;-56
2023/04/28 04:02:03;;;;;;;15.23;9.55;;;7.10;99.90;;;;;;5039177;28;20041;-56
2023/04/28 04:04:29;;;;;;;15.27;10.60;;;7.10;99.90;;;;;;5039810;28;20049;-57
2023/04/28 04:06:54;;;;;;;16.20;10.00;;;7.10;99.90;;;;;;5021849;28;20136;-57
2023/04/28 04:09:20;;;;;;;15.68;10.35;;;7.10;99.90;;;;;;5021114;28;20046;-57
2023/04/28 04:11:46;;;;;;;17.90;10.88;;;7.10;99.90;;;;;;5039086;28;20053;-57
2023/04/28 04:14:12;;;;;;;17.20;9.98;;;7.10;99.90;;;;;;5038413;28;20084;-56
2023/04/28 04:16:37;;;;;;;15.20;10.05;;;7.10;99.90;;;;;;5022031;28;20083;-57
2023/04/28 04:19:03;;;;;;;14.48;9.82;;;7.10;99.90;;;;;;5039206;28;20045;-56
2023/04/28 04:21:29;;;;;;;13.77;10.27;;;7.10;99.90;;;;;;5039450;28;20092;-56
2023/04/28 04:23:55;;;;;;;13.02;9.00;;;7.10;99.90;;;;;;5039275;28;20053;-56
2023/04/28 04:26:21;;;;;;;16.48;10.85;;;7.10;99.90;;;;;;5038631;28;20041;-56
2023/04/28 04:28:46;;;;;;;18.52;11.57;;;7.10;99.90;;;;;;5039120;28;20112;-57
2023/04/28 04:31:12;;;;;;;16.25;9.63;;;7.10;99.90;;;;;;5038436;28;20440;-57
2023/04/28 04:33:38;;;;;;;14.18;9.13;;;7.10;99.90;;;;;;5021456;28;20152;-57
2023/04/28 04:36:04;;;;;;;15.10;9.95;;;7.20;99.90;;;;;;5038534;28;20041;-59
2023/04/28 04:38:30;;;;;;;16.90;11.00;;;7.10;99.90;;;;;;5039525;28;20109;-58
2023/04/28 04:40:56;;;;;;;15.25;10.48;;;7.10;99.90;;;;;;5038954;28;20068;-57
2023/04/28 04:43:21;;;;;;;16.50;11.13;;;7.20;99.90;;;;;;5038267;28;20129;-56
2023/04/28 04:45:47;;;;;;;15.15;9.60;;;7.20;99.90;;;;;;5039015;28;20041;-61
2023/04/28 04:48:13;;;;;;;13.82;9.20;;;7.20;99.90;;;;;;5038452;28;20414;-57
2023/04/28 04:50:40;;;;;;;15.20;10.43;;;7.20;99.90;;;;;;5039008;28;20041;-57
2023/04/28 04:53:05;;;;;;;15.15;8.90;;;7.20;99.90;;;;;;5038489;28;20044;-57
2023/04/28 04:55:31;;;;;;;18.40;9.95;;;7.20;99.90;;;;;;5039020;28;20045;-56
2023/04/28 04:57:57;;;;;;;15.98;9.50;;;7.20;99.90;;;;;;5038790;28;20168;-57
2023/04/28 05:00:23;;;;;;;13.52;9.65;;;7.20;99.90;;;;;;5038344;28;20072;-57
2023/04/28 05:02:48;;;;;;;14.82;9.93;;;7.30;99.90;;;;;;5043296;28;20477;-58
2023/04/28 05:05:14;;;;;;;16.27;10.02;;;7.30;99.90;;;;;;5044687;28;20041;-57
2023/04/28 05:07:40;;;;;;;15.10;10.15;;;7.30;99.90;;;;;;5045553;28;20037;-57
2023/04/28 05:10:06;;;;;;;15.55;10.30;;;7.40;99.90;;;;;;5044418;28;20049;-57
2023/04/28 05:12:32;;;;;;;14.10;9.77;;;7.30;99.90;;;;;;5045658;28;20053;-57
2023/04/28 05:14:57;;;;;;;13.27;9.63;;;7.30;99.90;;;;;;5044706;28;20038;-57
2023/04/28 05:17:23;;;;;;;14.70;9.23;;;7.40;99.90;;;;;;5027426;28;20041;-57
2023/04/28 05:19:49;;;;;;;15.38;9.75;;;7.30;99.90;;;;;;5027210;28;20390;-57
2023/04/28 05:22:15;;;;;;;15.88;9.15;;;7.40;99.90;;;;;;5044527;28;20048;-57
2023/04/28 05:24:41;;;;;;;18.73;9.98;;;7.90;99.90;;;;;;5044935;28;20045;-58
2023/04/28 05:27:06;;;;;;;12.35;9.00;;;7.40;99.90;;;;;;5044609;28;20045;-58
2023/04/28 05:29:32;;;;;;;13.85;10.20;;;7.40;99.90;;;;;;5045539;28;20410;-57
2023/04/28 05:31:57;;;;;;;12.95;9.65;;;7.50;99.90;;;;;;5044752;28;20096;-57
2023/04/28 05:34:23;;;;;;;13.45;9.50;;;7.50;99.90;;;;;;5045262;28;20041;-56
2023/04/28 05:36:50;;;;;;;16.83;10.02;;;7.50;99.90;;;;;;5045041;28;20034;-57
2023/04/28 05:39:16;;;;;;;15.75;9.20;;;7.60;99.90;;;;;;5044265;28;20057;-58
2023/04/28 05:41:42;;;;;;;13.63;9.57;;;7.60;99.90;;;;;;5045202;28;20049;-57
2023/04/28 05:44:08;;;;;;;15.57;9.95;;;7.60;99.90;;;;;;5043918;28;20048;-59
2023/04/28 05:46:33;;;;;;;15.80;9.85;;;7.60;99.90;;;;;;5045242;28;20049;-57
2023/04/28 05:48:59;;;;;;;14.68;8.88;;;7.60;99.90;;;;;;5026770;28;20049;-57
2023/04/28 05:51:26;;;;;;;14.95;9.75;;;7.70;99.90;;;;;;5045375;28;20044;-57
2023/04/28 05:53:51;;;;;;;16.45;9.40;;;7.70;99.90;;;;;;5044939;28;20164;-57
2023/04/28 05:56:18;;;;;;;14.32;9.57;;;7.70;99.90;;;;;;5044395;28;20053;-57
2023/04/28 05:58:44;;;;;;;14.55;8.30;;;7.80;99.90;;;;;;5044885;28;20560;-57
2023/04/28 06:01:10;;;;;;;16.95;10.15;;;7.80;99.90;;;;;;5044014;28;20045;-57
2023/04/28 06:03:36;;;;;;;16.80;9.52;;;7.80;99.90;;;;;;5045042;28;20072;-57
2023/04/28 06:06:02;;;;;;;12.55;9.00;;;7.80;99.90;;;;;;5044245;28;20060;-57
2023/04/28 06:08:27;;;;;;;13.48;9.45;;;7.90;99.90;;;;;;5044866;28;20049;-57
2023/04/28 06:10:53;;;;;;;14.27;8.02;;;7.90;99.90;;;;;;5044581;28;20053;-57
2023/04/28 06:13:19;;;;;;;16.65;9.55;;;7.90;99.90;;;;;;5042763;28;20072;-58
2023/04/28 06:15:45;;;;;;;13.40;8.98;;;7.80;99.90;;;;;;5041534;28;20042;-58
2023/04/28 06:18:10;;;;;;;16.95;9.20;;;7.90;99.90;;;;;;5023085;28;20615;-57
2023/04/28 06:20:36;;;;;;;13.45;9.00;;;7.90;99.90;;;;;;5041303;28;20061;-57
2023/04/28 06:23:05;;;;;;;10.77;8.10;;;7.90;99.90;;;;;;5022971;28;20053;-55
2023/04/28 06:25:31;;;;;;;12.38;8.10;;;7.90;99.90;;;;;;5041845;28;20050;-57
2023/04/28 06:27:57;;;;;;;14.50;8.50;;;8.00;99.90;;;;;;5041439;28;20095;-58
2023/04/28 06:30:23;;;;;;;11.73;7.85;;;8.00;99.90;;;;;;5040843;28;20052;-58
2023/04/28 06:32:49;;;;;;;14.15;8.27;;;8.00;99.90;;;;;;5041379;28;20041;-57
2023/04/28 06:35:15;;;;;;;14.68;8.68;;;8.10;99.90;;;;;;5022671;28;20049;-55
2023/04/28 06:37:41;;;;;;;11.65;8.27;;;8.10;99.90;;;;;;5041371;28;20049;-55
2023/04/28 06:40:08;;;;;;;11.43;7.68;;;8.20;99.90;;;;;;5040539;28;20082;-57
2023/04/28 06:42:34;;;;;;;12.90;8.57;;;8.30;99.90;;;;;;5041543;28;20120;-57
2023/04/28 06:45:00;;;;;;;15.05;9.90;;;8.40;99.90;;;;;;5022654;28;20073;-56
2023/04/28 06:47:26;;;;;;;12.43;8.40;;;8.50;99.90;;;;;;5023173;28;20088;-56
2023/04/28 06:49:52;;;;;;;13.07;7.95;;;8.50;99.90;;;;;;5040921;28;20060;-55
2023/04/28 06:52:20;;;;;;;14.52;8.90;;;8.60;99.90;;;;;;5040119;28;20096;-57
2023/04/28 06:54:46;;;;;;;12.88;8.63;;;8.60;99.90;;;;;;5040903;28;20042;-55
2023/04/28 06:57:11;;;;;;;13.20;8.20;;;8.70;99.90;;;;;;5022484;28;20075;-58
2023/04/28 06:59:37;;;;;;;14.25;8.02;;;8.70;99.90;;;;;;5041321;28;20045;-56
2023/04/28 07:02:03;;;;;;;12.55;8.43;;;8.70;99.90;;;;;;5040302;28;20057;-57
2023/04/28 07:04:28;;;;;;;10.27;7.22;;;8.70;99.90;;;;;;5040555;28;20051;-56
2023/04/28 07:06:54;;;;;;;11.80;8.23;;;8.70;99.90;;;;;;5040614;28;20076;-56
2023/04/28 07:09:20;;;;;;;12.52;7.85;;;8.80;99.90;;;;;;5039941;28;20072;-56
2023/04/28 07:11:46;;;;;;;11.98;8.07;;;8.80;99.90;;;;;;5022676;28;20045;-56
2023/04/28 07:14:11;;;;;;;11.63;8.40;;;8.80;99.90;;;;;;5039450;28;20048;-57
2023/04/28 07:16:37;;;;;;;11.98;7.95;;;8.90;99.90;;;;;;5040835;28;20069;-57
2023/04/28 07:19:03;;;;;;;11.27;7.95;;;9.00;99.90;;;;;;5040158;28;20049;-57
2023/04/28 07:21:28;;;;;;;12.55;8.40;;;9.10;99.90;;;;;;5040092;28;20053;-57
2023/04/28 07:23:55;;;;;;;12.68;8.23;;;9.20;99.90;;;;;;5040443;28;20049;-56
2023/04/28 07:26:24;;;;;;;11.07;7.63;;;9.30;99.90;;;;;;5039321;28;20121;-56
2023/04/28 07:28:50;;;;;;;10.00;7.53;;;9.30;99.90;;;;;;5040024;28;20038;-58
2023/04/28 07:31:16;;;;;;;14.75;8.75;;;9.40;99.90;;;;;;5039436;28;20041;-57
2023/04/28 07:33:42;;;;;;;11.68;7.68;;;9.40;99.90;;;;;;5040392;28;20375;-57
2023/04/28 07:36:08;;;;;;;13.30;8.43;;;9.50;99.90;;;;;;5039724;28;20041;-56
2023/04/28 07:38:34;;;;;;;11.68;8.07;;;9.50;99.90;;;;;;5040361;28;20045;-56
2023/04/28 07:41:01;;;;;;;11.98;9.10;;;9.60;99.90;;;;;;5040145;28;20033;-55
2023/04/28 07:43:27;;;;;;;12.80;8.20;;;9.60;99.90;;;;;;5020942;28;20053;-55
2023/04/28 07:45:53;;;;;;;16.50;8.73;;;9.60;99.90;;;;;;5022143;28;20045;-56
2023/04/28 07:48:18;;;;;;;10.75;7.30;;;9.70;99.90;;;;;;5039305;28;20041;-55
2023/04/28 07:50:44;;;;;;;11.93;8.85;;;9.70;99.90;;;;;;5039811;28;20044;-56
2023/04/28 07:53:10;;;;;;;14.02;7.90;;;9.80;99.90;;;;;;5021634;28;20076;-56
2023/04/28 07:55:36;;;;;;;13.30;7.82;;;9.90;99.90;;;;;;5040117;28;20064;-56
2023/04/28 07:58:01;;;;;;;17.00;8.48;;;9.90;99.90;;;;;;5039813;28;20045;-55
2023/04/28 08:00:27;;;;;;;13.82;8.35;;;10.00;99.90;;;;;;5038792;28;20041;-58
2023/04/28 08:02:53;;;;;;;11.68;8.68;;;10.00;99.90;;;;;;5039274;28;20155;-56
2023/04/28 08:05:19;;;;;;;17.05;9.15;;;10.10;99.90;;;;;;5038376;28;20128;-56
2023/04/28 08:07:45;;;;;;;10.00;8.02;;;10.20;99.90;;;;;;5039396;28;20049;-55
2023/04/28 08:10:10;;;;;;;11.40;7.72;;;10.30;99.90;;;;;;5038986;28;20056;-56
2023/04/28 08:12:37;;;;;;;13.73;8.55;;;10.40;99.90;;;;;;5039837;28;20049;-57
2023/04/28 08:15:03;;;;;;;14.30;7.85;;;10.50;99.90;;;;;;5004878;28;20072;-57
2023/04/28 08:17:29;;;;;;;11.27;7.30;;;10.60;99.90;;;;;;5039206;28;20152;-58
2023/04/28 08:19:55;;;;;;;10.68;8.00;;;10.70;99.90;;;;;;5038803;28;20058;-57
2023/04/28 08:22:20;;;;;;;10.77;7.05;;;10.80;99.90;;;;;;5038823;28;20501;-57
2023/04/28 08:24:46;;;;;;;12.32;9.00;;;10.80;99.90;;;;;;5039396;28;20033;-57
2023/04/28 08:27:12;;;;;;;11.63;7.97;;;10.90;99.90;;;;;;5038586;28;20065;-57
2023/04/28 08:29:39;;;;;;;11.93;8.02;;;11.00;99.90;;;;;;5039418;28;20052;-57
2023/04/28 08:32:05;;;;;;;16.23;7.78;;;11.10;99.90;;;;;;5038606;28;20059;-57
2023/04/28 08:34:32;;;;;;;17.65;8.30;;;11.10;99.90;;;;;;5020926;28;20362;-57
2023/04/28 08:36:57;;;;;;;11.57;7.85;;;11.20;99.90;;;;;;5038142;28;20524;-58
2023/04/28 08:39:25;;;;;;;12.43;7.95;;;11.30;99.90;;;;;;5038358;28;20041;-57
2023/04/28 08:41:51;;;;;;;13.63;7.25;;;11.40;99.90;;;;;;5039191;28;20068;-57
2023/04/28 08:44:17;;;;;;;12.18;8.05;;;11.60;99.90;;;;;;5037842;28;20041;-57
2023/04/28 08:46:44;;;;;;;12.63;7.68;;;11.70;99.90;;;;;;5039163;28;20105;-57
2023/04/28 08:49:17;;;;;;;12.25;8.23;;;11.80;99.90;;;;;;5038777;28;20040;-56
2023/04/28 08:51:51;;;;;;;11.88;7.40;;;11.80;99.90;;;;;;5038587;28;20052;-57
2023/04/28 08:54:19;;;;;;;12.32;7.82;;;11.70;99.90;;;;;;5038620;28;20083;-57
2023/04/28 08:56:46;;;;;;;13.73;9.00;;;11.70;99.90;;;;;;5038256;28;20056;-57
2023/04/28 08:59:12;;;;;;;11.70;7.70;;;11.70;99.90;;;;;;5038893;28;20045;-58
2023/04/28 09:01:38;;;;;;;10.77;7.60;;;11.70;99.90;;;;;;5038148;28;20045;-57
2023/04/28 09:04:04;;;;;;;11.55;7.97;;;11.70;99.90;;;;;;5039081;28;20037;-56
2023/04/28 09:06:37;;;;;;;16.60;8.23;;;11.80;99.90;;;;;;5038752;28;20044;-56
2023/04/28 09:09:26;;;;;;;10.35;8.07;;;11.80;99.90;;;;;;5038268;28;20576;-57
2023/04/28 09:11:52;;;;;;;12.77;8.25;;;11.80;99.90;;;;;;5038549;28;20050;-57
2023/04/28 09:14:18;;;;;;;13.23;7.57;;;11.80;99.90;;;;;;5037774;28;20048;-57
2023/04/28 09:16:43;;;;;;;10.98;8.13;;;11.90;99.90;;;;;;5039058;28;20030;-57
2023/04/28 09:19:09;;;;;;;9.18;7.35;;;12.00;99.90;;;;;;5038458;28;20095;-57
2023/04/28 09:21:55;;;;;;;15.05;8.40;;;12.00;99.90;;;;;;5038176;28;20041;-57
2023/04/28 09:24:35;;;;;;;10.55;7.78;;;12.10;99.90;;;;;;5038293;28;20080;-57
2023/04/28 09:27:03;;;;;;;10.38;7.57;;;12.20;99.90;;;;;;5038057;28;20045;-58
2023/04/28 09:29:32;;;;;;;12.02;7.90;;;12.40;99.90;;;;;;5038980;28;20509;-57
2023/04/28 09:32:30;;;;;;;12.48;7.85;;;12.50;99.90;;;;;;5038006;28;20057;-56
2023/04/28 09:34:56;;;;;;;11.35;7.32;;;12.80;99.90;;;;;;5014782;28;20104;-57
2023/04/28 09:37:24;;;;;;;13.07;8.27;;;12.90;99.90;;;;;;5021033;28;20057;-57
2023/04/28 09:39:52;;;;;;;10.30;7.57;;;13.10;99.90;;;;;;5020083;28;20055;-57
2023/04/28 09:42:38;;;;;;;11.27;7.40;;;13.30;99.90;;;;;;5038881;28;20038;-56
2023/04/28 09:45:15;;;;;;;11.75;8.73;;;13.50;99.90;;;;;;5037985;28;20041;-58
2023/04/28 09:47:42;;;;;;;11.57;7.93;;;13.60;99.90;;;;;;5037934;28;20048;-57
2023/04/28 09:50:13;;;;;;;13.13;7.38;;;13.70;99.90;;;;;;5042035;28;20041;-57
2023/04/28 09:52:40;;;;;;;11.50;8.68;;;13.90;99.90;;;;;;5041408;28;20087;-57
2023/04/28 09:55:10;;;;;;;13.45;8.48;;;14.00;99.90;;;;;;5042318;28;20037;-57
2023/04/28 09:57:37;;;;;;;9.88;7.60;;;14.30;99.90;;;;;;5041863;28;20038;-57
2023/04/28 10:00:05;;;;;;;12.43;7.85;;;14.40;99.90;;;;;;5041811;28;20045;-57
2023/04/28 10:02:33;;;;;;;13.13;8.57;;;14.50;99.90;;;;;;5041597;28;20396;-56
2023/04/28 10:04:59;;;;;;;10.27;7.47;;;14.50;99.90;;;;;;5041004;28;20103;-57
2023/04/28 10:07:26;;;;;;;13.25;7.90;;;14.60;99.90;;;;;;5041771;28;20041;-57
2023/04/28 10:09:53;;;;;;;12.38;6.93;;;14.60;99.90;;;;;;5041012;28;20048;-58
2023/04/28 10:12:20;;;;;;;10.70;7.88;;;14.70;99.90;;;;;;5042113;28;20084;-57
2023/04/28 10:14:49;;;;;;;12.82;7.68;;;14.70;99.90;;;;;;5040939;28;20046;-57
2023/04/28 10:17:16;;;;;;;8.70;6.60;;;14.60;99.90;;;;;;5041449;28;20045;-57
2023/04/28 10:19:46;;;;;;;13.48;8.18;;;14.60;99.90;;;;;;5041462;28;20135;-56
2023/04/28 10:22:17;;;;;;;11.30;7.65;;;14.50;99.90;;;;;;5040999;28;20562;-57
2023/04/28 10:25:26;;;;;;;9.40;6.60;;;14.40;99.90;;;;;;5041381;28;20112;-56
2023/04/28 10:27:52;;;;;;;10.48;7.15;;;14.30;99.90;;;;;;5041535;28;20056;-57
2023/04/28 10:30:22;;;;;;;9.95;7.35;;;14.30;99.90;;;;;;5040681;28;20056;-57
2023/04/28 10:33:14;;;;;;;10.65;7.88;;;14.30;99.90;;;;;;5041356;28;20045;-57
2023/04/28 10:35:42;;;;;;;9.57;6.53;;;14.40;99.90;;;;;;5040469;28;20592;-56
2023/04/28 10:38:14;;;;;;;12.05;7.68;;;14.40;99.90;;;;;;5041769;28;20037;-57
2023/04/28 10:40:41;;;;;;;10.68;7.18;;;14.40;99.90;;;;;;5041012;28;20101;-56
2023/04/28 10:43:09;;;;;;;10.18;7.22;;;14.40;99.90;;;;;;5040757;28;20045;-57
2023/04/28 10:45:52;;;;;;;10.60;6.63;;;14.40;99.90;;;;;;5040838;28;20049;-56
2023/04/28 10:48:42;;;;;;;11.27;7.75;;;14.30;99.90;;;;;;5040461;28;20076;-57
2023/04/28 10:51:13;;;;;;;10.23;7.43;;;14.30;99.90;;;;;;5041090;28;20505;-57
2023/04/28 10:53:43;;;;;;;9.50;7.38;;;14.30;99.90;;;;;;5040728;28;20050;-57
2023/04/28 10:56:23;;;;;;;10.00;7.32;;;14.30;99.90;;;;;;5040221;28;20095;-56
2023/04/28 10:58:59;;;;;;;11.88;7.65;;;14.30;99.90;;;;;;5040757;28;20119;-57
2023/04/28 11:01:33;;;;;;;11.85;8.20;;;14.30;99.90;;;;;;5039323;28;20095;-57
2023/04/28 11:04:10;;;;;;;13.32;8.85;;;14.40;99.90;;;;;;5023370;28;20045;-57
2023/04/28 11:06:40;;;;;;;12.10;8.82;;;14.40;99.90;;;;;;5040625;28;20626;-56
2023/04/28 11:09:14;;;;;;;13.85;8.45;;;14.30;99.90;;;;;;5039853;28;20591;-56
2023/04/28 11:11:59;;;;;;;15.45;8.65;;;14.30;99.90;;;;;;5040374;28;20045;-57
2023/04/28 11:14:24;;;;;;;12.07;8.77;;;14.30;99.90;;;;;;5039707;28;20052;-57
2023/04/28 11:16:58;;;;;;;15.80;10.25;;;14.20;99.90;;;;;;5040671;28;20452;-58
2023/04/28 11:19:29;;;;;;;17.48;10.82;;;14.20;99.90;;;;;;5040348;28;20048;-57
2023/04/28 11:21:57;;;;;;;17.08;11.80;;;14.10;99.90;;;;;;5039755;28;20049;-57
2023/04/28 11:24:27;;;;;;;17.35;12.23;;;14.00;99.90;;;;;;5006288;28;20049;-57
2023/04/28 11:26:53;;;;;;;19.38;14.32;;;14.00;99.90;;;;;;5039758;28;20097;-58
2023/04/28 11:29:30;;;;;;;23.60;16.17;;;14.10;99.90;;;;;;5040559;28;20045;-56
2023/04/28 11:31:56;;;;;;;23.20;14.90;;;14.10;99.90;;;;;;5039922;28;20037;-56
2023/04/28 11:34:23;;;;;;;22.15;15.50;;;14.10;99.90;;;;;;5040101;28;20037;-56
2023/04/28 11:36:48;;;;;;;22.83;16.83;;;14.00;99.90;;;;;;5040158;28;20683;-56
2023/04/28 11:39:14;;;;;;;26.50;16.98;;;14.00;99.90;;;;;;5039385;28;20041;-56
2023/04/28 11:41:44;;;;;;;24.85;16.65;;;13.90;99.90;;;;;;5040021;28;20520;-56
2023/04/28 11:44:11;;;;;;;22.38;17.45;;;13.90;99.90;;;;;;5039047;28;20072;-58
2023/04/28 11:47:03;;;;;;;26.63;17.92;;;13.80;99.90;;;;;;5040422;28;20046;-57
2023/04/28 11:49:45;;;;;;;22.90;17.73;;;13.80;99.90;;;;;;5039165;28;20046;-56
2023/04/28 11:52:12;;;;;;;31.35;21.50;;;13.80;99.90;;;;;;5039069;28;20052;-57
2023/04/28 11:54:41;;;;;;;28.77;20.95;;;13.80;99.90;;;;;;5039735;28;20092;-57
2023/04/28 11:57:16;;;;;;;24.10;19.50;;;13.80;99.90;;;;;;5039255;28;20040;-57
2023/04/28 11:59:42;;;;;;;24.73;18.60;;;13.80;99.90;;;;;;5040033;28;20037;-58
2023/04/28 12:02:08;;;;;;;23.63;17.30;;;13.80;99.90;;;;;;5039325;28;20039;-57
2023/04/28 12:04:39;;;;;;;24.00;19.33;;;13.80;99.90;;;;;;5039065;28;20037;-58
2023/04/28 12:07:09;;;;;;;28.75;22.58;;;13.70;99.90;;;;;;5039560;28;20045;-56
2023/04/28 12:09:37;;;;;;;24.27;19.25;;;13.60;99.90;;;;;;5038652;28;20041;-58
2023/04/28 12:12:05;;;;;;;28.95;21.52;;;13.60;99.90;;;;;;5039471;28;20107;-58
2023/04/28 12:14:51;;;;;;;24.67;18.67;;;13.50;99.90;;;;;;5038605;28;20072;-57
2023/04/28 12:17:28;;;;;;;30.45;24.23;;;13.50;99.90;;;;;;5038940;28;20041;-58
2023/04/28 12:19:55;;;;;;;35.10;21.65;;;13.40;99.90;;;;;;5039002;28;20314;-58
2023/04/28 12:22:20;;;;;;;34.45;23.60;;;13.40;99.90;;;;;;5038701;28;20053;-58
2023/04/28 12:25:01;;;;;;;29.70;22.17;;;13.30;99.90;;;;;;5039368;28;20055;-57
2023/04/28 12:27:27;;;;;;;28.00;20.20;;;13.30;99.90;;;;;;5038882;28;20041;-56
2023/04/28 12:29:55;;;;;;;27.13;20.58;;;13.30;99.90;;;;;;5039011;28;20041;-57
2023/04/28 12:32:37;;;;;;;28.60;23.25;;;13.30;99.90;;;;;;5038980;28;20046;-57
2023/04/28 12:35:04;;;;;;;31.70;26.30;;;13.30;99.90;;;;;;5038285;28;20053;-57
2023/04/28 12:37:31;;;;;;;35.22;27.95;;;13.30;99.90;;;;;;5039205;28;20041;-57
2023/04/28 12:39:57;;;;;;;30.80;24.27;;;13.30;99.90;;;;;;5038404;28;20060;-55
2023/04/28 12:42:23;;;;;;;29.67;24.88;;;13.30;99.90;;;;;;5039108;28;20050;-57